Time;durP1;ratioP1;P1;durP2;ratioP2;P2;SDS_P1;SDS_P2;PMS_P1;PMS_P2;Temp;Humidity;BMP_temperature;BMP_pressure;BME280_temperature;BME280_humidity;BME280_pressure;Samples;Min_cycle;Max_cycle;Signal;HPM_P1;HPM_P2
2023/04/05 00:02:23;;;;;;;86.55;78.90;;;;;;;3.35;100.00;100747.91;5059768;28;20118;-83
2023/04/05 00:04:57;;;;;;;83.38;75.88;;;;;;;3.09;100.00;100751.41;5060166;28;20052;-83
2023/04/05 00:07:25;;;;;;;90.20;82.50;;;;;;;3.13;100.00;100744.88;5051380;28;20048;-83
2023/04/05 00:09:52;;;;;;;109.47;100.38;;;;;;;3.33;100.00;100742.00;5060577;28;20045;-84
2023/04/05 00:12:20;;;;;;;96.55;88.32;;;;;;;3.24;100.00;100738.53;5059257;28;20045;-84
2023/04/05 00:14:47;;;;;;;86.93;79.20;;;;;;;3.05;100.00;100736.13;5059910;28;20066;-84
2023/04/05 00:17:14;;;;;;;81.80;74.10;;;;;;;3.17;100.00;100740.13;5059963;28;20422;-84
2023/04/05 00:19:41;;;;;;;94.40;86.30;;;;;;;3.17;100.00;100730.44;5058438;28;20658;-84
2023/04/05 00:22:09;;;;;;;96.38;88.60;;;;;;;3.05;100.00;100733.50;5054491;28;20511;-83
2023/04/05 00:24:37;;;;;;;83.82;76.32;;;;;;;3.13;100.00;100720.44;5057633;28;20073;-84
2023/04/05 00:27:04;;;;;;;84.57;77.10;;;;;;;3.17;100.00;100727.81;5058241;28;20048;-84
2023/04/05 00:29:33;;;;;;;89.68;82.13;;;;;;;3.29;100.00;100725.75;5061960;28;20051;-82
2023/04/05 00:31:59;;;;;;;94.70;86.80;;;;;;;3.26;100.00;100727.88;5063414;28;20588;-81
2023/04/05 00:34:26;;;;;;;91.32;83.55;;;;;;;3.29;100.00;100724.91;5063693;28;20075;-82
2023/04/05 00:36:53;;;;;;;89.95;82.35;;;;;;;3.32;100.00;100722.78;5062708;28;20049;-82
2023/04/05 00:39:20;;;;;;;90.03;82.22;;;;;;;3.17;100.00;100719.94;5059002;28;20045;-81
2023/04/05 00:41:47;;;;;;;82.90;75.50;;;;;;;3.21;100.00;100718.66;5064347;28;20053;-82
2023/04/05 00:44:13;;;;;;;80.68;73.47;;;;;;;3.22;100.00;100717.69;5060379;28;20053;-82
2023/04/05 00:46:42;;;;;;;86.25;78.75;;;;;;;3.43;100.00;100714.63;5062466;28;20049;-82
2023/04/05 00:49:09;;;;;;;80.47;73.43;;;;;;;3.39;100.00;100715.13;5064178;28;20056;-81
2023/04/05 00:51:36;;;;;;;77.88;71.07;;;;;;;3.50;100.00;100706.94;5056327;28;20045;-83
2023/04/05 00:54:04;;;;;;;87.03;79.80;;;;;;;3.41;100.00;100713.97;5059932;28;20053;-84
2023/04/05 00:56:31;;;;;;;91.65;84.07;;;;;;;3.40;100.00;100712.34;5059463;28;20048;-84
2023/04/05 00:58:58;;;;;;;82.15;75.05;;;;;;;3.51;100.00;100711.22;5059251;28;20045;-84
2023/04/05 01:01:27;;;;;;;81.18;74.07;;;;;;;3.49;100.00;100715.00;5055395;28;20437;-84
2023/04/05 01:04:01;;;;;;;101.57;93.65;;;;;;;3.41;100.00;100726.28;5059450;28;20489;-84
2023/04/05 01:06:47;;;;;;;93.85;86.22;;;;;;;3.43;100.00;100722.50;5058583;28;20051;-83
2023/04/05 01:09:26;;;;;;;89.93;82.35;;;;;;;3.64;100.00;100719.47;5059506;28;20072;-84
2023/04/05 01:11:56;;;;;;;91.35;83.65;;;;;;;3.57;100.00;100715.84;5059280;28;20144;-84
2023/04/05 01:14:23;;;;;;;89.00;81.45;;;;;;;3.65;100.00;100709.78;5059059;28;20114;-83
2023/04/05 01:16:56;;;;;;;89.57;81.97;;;;;;;3.33;100.00;100716.59;5048899;28;20060;-84
2023/04/05 01:19:28;;;;;;;91.43;83.70;;;;;;;3.52;100.00;100712.88;5054533;28;20577;-84
2023/04/05 01:22:27;;;;;;;89.80;81.90;;;;;;;3.41;100.00;100715.78;5058905;28;20045;-84
2023/04/05 01:25:21;;;;;;;92.90;85.00;;;;;;;3.68;100.00;100704.19;5038827;28;20048;-84
2023/04/05 01:28:17;;;;;;;99.05;90.95;;;;;;;3.65;100.00;100702.72;5056890;28;20106;-83
2023/04/05 01:30:52;;;;;;;104.22;95.85;;;;;;;3.76;100.00;100700.78;5048018;28;20106;-84
2023/04/05 01:33:25;;;;;;;91.38;83.63;;;;;;;3.63;100.00;100701.22;5057937;28;20496;-84
2023/04/05 01:35:57;;;;;;;112.57;103.38;;;;;;;3.39;100.00;100700.19;5052355;28;20111;-84
2023/04/05 01:38:27;;;;;;;97.80;89.43;;;;;;;3.32;100.00;100695.72;5056754;28;20417;-83
2023/04/05 01:40:54;;;;;;;117.18;107.88;;;;;;;3.39;100.00;100700.19;5058311;28;20053;-84
2023/04/05 01:43:21;;;;;;;116.18;106.70;;;;;;;3.58;100.00;100699.09;5058051;28;20075;-84
2023/04/05 01:45:49;;;;;;;109.65;100.75;;;;;;;3.37;100.00;100690.81;5058056;28;20096;-84
2023/04/05 01:48:16;;;;;;;111.65;102.65;;;;;;;3.56;100.00;100694.97;5059031;28;20473;-84
2023/04/05 01:50:43;;;;;;;121.30;111.72;;;;;;;3.62;100.00;100692.53;5055855;28;20041;-84
2023/04/05 01:53:10;;;;;;;122.10;112.53;;;;;;;3.44;100.00;100687.38;5059386;28;20074;-84
2023/04/05 01:55:36;;;;;;;116.20;106.70;;;;;;;3.46;100.00;100691.69;5058763;28;20576;-84
2023/04/05 01:58:03;;;;;;;108.18;99.20;;;;;;;3.55;100.00;100690.72;5057884;28;20045;-84
2023/04/05 02:00:30;;;;;;;116.90;107.30;;;;;;;3.66;100.00;100688.59;5057685;28;20045;-84
2023/04/05 02:02:58;;;;;;;109.55;100.38;;;;;;;3.37;100.00;100690.81;5058722;28;20052;-84
2023/04/05 02:05:25;;;;;;;126.82;116.78;;;;;;;3.65;100.00;100689.56;5057596;28;20115;-84
2023/04/05 02:07:52;;;;;;;115.65;106.15;;;;;;;3.64;100.00;100681.88;5057688;28;20053;-84
2023/04/05 02:10:19;;;;;;;117.57;108.03;;;;;;;3.77;100.00;100686.66;5059038;28;20045;-83
2023/04/05 02:12:46;;;;;;;121.97;112.15;;;;;;;3.53;100.00;100688.22;5058821;28;20112;-84
2023/04/05 02:15:13;;;;;;;126.65;116.68;;;;;;;3.80;100.00;100688.94;5057415;28;20045;-84
2023/04/05 02:17:44;;;;;;;114.35;105.03;;;;;;;3.75;100.00;100693.84;5058299;28;20118;-84
2023/04/05 02:20:14;;;;;;;112.45;103.30;;;;;;;3.73;100.00;100690.59;5058206;28;20490;-84
2023/04/05 02:22:44;;;;;;;122.95;113.00;;;;;;;3.77;100.00;100697.16;5058683;28;20104;-84
2023/04/05 02:25:11;;;;;;;132.38;122.00;;;;;;;3.83;100.00;100697.31;5056597;28;20544;-84
2023/04/05 02:27:37;;;;;;;133.98;123.47;;;;;;;3.77;100.00;100697.97;5057216;28;20114;-84
2023/04/05 02:30:05;;;;;;;117.88;108.47;;;;;;;3.63;100.00;100698.59;5057683;28;20045;-84
2023/04/05 02:32:32;;;;;;;107.88;99.20;;;;;;;3.62;100.00;100703.03;5058176;28;20464;-84
2023/04/05 02:34:59;;;;;;;114.10;104.80;;;;;;;3.81;100.00;100707.19;5058607;28;20053;-83
2023/04/05 02:37:27;;;;;;;123.30;113.28;;;;;;;3.83;100.00;100704.38;5059007;28;20147;-84
2023/04/05 02:39:54;;;;;;;125.28;115.28;;;;;;;3.85;100.00;100708.50;5048769;28;20044;-84
2023/04/05 02:42:20;;;;;;;103.68;94.88;;;;;;;3.66;100.00;100703.53;5057440;28;20068;-84
2023/04/05 02:44:47;;;;;;;106.50;97.60;;;;;;;3.80;100.00;100700.28;5048398;28;20465;-84
2023/04/05 02:47:20;;;;;;;104.60;95.68;;;;;;;3.73;100.00;100699.28;5058264;28;20049;-84
2023/04/05 02:49:46;;;;;;;116.00;106.35;;;;;;;4.22;100.00;100698.50;5061807;28;20067;-82
2023/04/05 02:52:13;;;;;;;125.53;114.50;;;;;;;3.80;100.00;100712.59;5065740;28;20049;-82
2023/04/05 02:54:41;;;;;;;112.30;101.80;;;;;;;3.44;100.00;100707.56;5062990;28;20041;-82
2023/04/05 02:57:10;;;;;;;112.68;101.63;;;;;;;3.54;100.00;100707.44;5064955;28;20049;-82
2023/04/05 02:59:37;;;;;;;115.53;104.15;;;;;;;3.44;100.00;100708.41;5065070;28;20041;-82
2023/04/05 03:02:03;;;;;;;124.68;112.25;;;;;;;3.74;100.00;100711.44;5056268;28;20110;-82
2023/04/05 03:04:33;;;;;;;108.90;98.32;;;;;;;3.52;100.00;100710.25;5066552;28;20114;-82
2023/04/05 03:07:01;;;;;;;110.03;98.80;;;;;;;3.34;100.00;100723.47;5061157;28;20049;-84
2023/04/05 03:09:32;;;;;;;114.05;102.65;;;;;;;3.29;100.00;100720.50;5059867;28;20055;-84
2023/04/05 03:12:00;;;;;;;120.82;109.38;;;;;;;3.32;100.00;100719.34;5061820;28;20496;-84
2023/04/05 03:14:27;;;;;;;126.32;114.57;;;;;;;3.40;100.00;100716.75;5059627;28;20128;-84
2023/04/05 03:16:53;;;;;;;133.27;120.85;;;;;;;3.10;100.00;100713.69;5059210;28;20073;-82
2023/04/05 03:19:21;;;;;;;138.07;124.85;;;;;;;3.07;100.00;100714.00;5062312;28;20040;-82
2023/04/05 03:21:48;;;;;;;141.45;128.18;;;;;;;3.05;100.00;100715.94;5063472;28;20091;-82
2023/04/05 03:24:14;;;;;;;133.65;120.70;;;;;;;3.13;100.00;100712.56;5064154;28;20053;-82
2023/04/05 03:26:43;;;;;;;117.55;105.60;;;;;;;3.20;100.00;100717.00;5064295;28;20045;-84
2023/04/05 03:29:11;;;;;;;117.45;105.82;;;;;;;4.05;100.00;100710.81;5054789;28;20095;-84
2023/04/05 03:31:38;;;;;;;114.35;102.68;;;;;;;3.09;100.00;100712.06;5060825;28;20049;-84
2023/04/05 03:34:05;;;;;;;119.28;106.97;;;;;;;3.21;100.00;100717.84;5059491;28;20553;-84
2023/04/05 03:36:40;;;;;;;126.57;113.40;;;;;;;3.28;100.00;100720.66;5060135;28;20045;-83
2023/04/05 03:39:07;;;;;;;131.38;118.32;;;;;;;3.07;100.00;100723.69;5060539;28;20049;-82
2023/04/05 03:41:34;;;;;;;126.05;113.40;;;;;;;3.14;100.00;100712.38;5060514;28;20488;-82
2023/04/05 03:44:00;;;;;;;130.57;117.13;;;;;;;3.33;100.00;100718.38;5060769;28;20512;-81
2023/04/05 03:46:29;;;;;;;118.05;105.32;;;;;;;3.29;100.00;100724.91;5064519;28;20067;-82
2023/04/05 03:48:57;;;;;;;121.85;108.97;;;;;;;3.39;100.00;100725.63;5064729;28;20049;-83
2023/04/05 03:51:23;;;;;;;118.28;105.97;;;;;;;3.03;100.00;100717.94;5063802;28;20116;-82
2023/04/05 03:53:51;;;;;;;133.00;119.75;;;;;;;3.49;100.00;100725.50;5062700;28;20044;-82
2023/04/05 03:56:18;;;;;;;135.98;122.90;;;;;;;3.30;100.00;100730.03;5064750;28;20056;-82
2023/04/05 03:58:45;;;;;;;125.35;112.72;;;;;;;3.30;100.00;100730.03;5060705;28;20522;-84
2023/04/05 04:01:12;;;;;;;112.85;101.28;;;;;;;3.25;100.00;100732.28;5059728;28;20506;-84
2023/04/05 04:03:40;;;;;;;107.45;96.15;;;;;;;3.33;100.00;100731.50;5060627;28;20106;-84
2023/04/05 04:06:07;;;;;;;105.60;94.43;;;;;;;3.73;100.00;100725.56;5060031;28;20079;-84
2023/04/05 04:08:34;;;;;;;107.45;96.72;;;;;;;3.17;100.00;100729.63;5061673;28;20049;-83
2023/04/05 04:11:01;;;;;;;87.68;78.85;;;;;;;3.80;100.00;100737.06;5047441;28;20050;-84
2023/04/05 04:13:28;;;;;;;93.03;83.63;;;;;;;3.19;100.00;100735.56;5057360;28;20056;-84
2023/04/05 04:15:54;;;;;;;94.07;84.40;;;;;;;3.20;100.00;100748.50;5059815;28;20049;-84
2023/04/05 04:18:21;;;;;;;90.88;81.28;;;;;;;2.81;100.00;100740.25;5060510;28;20049;-84
2023/04/05 04:20:51;;;;;;;88.68;79.30;;;;;;;2.84;100.00;100739.94;5057812;28;20098;-84
2023/04/05 04:23:18;;;;;;;88.07;78.88;;;;;;;2.89;100.00;100748.19;5059065;28;20261;-83
2023/04/05 04:25:45;;;;;;;85.25;76.15;;;;;;;2.90;100.00;100746.38;5058437;28;20098;-84
2023/04/05 04:28:18;;;;;;;86.82;77.75;;;;;;;2.88;100.00;100743.09;5058306;28;20128;-82
2023/04/05 04:30:45;;;;;;;88.72;79.28;;;;;;;2.95;100.00;100744.13;5051028;28;20067;-83
2023/04/05 04:33:12;;;;;;;92.28;82.88;;;;;;;2.99;100.00;100740.19;5057939;28;20049;-84
2023/04/05 04:35:38;;;;;;;84.10;75.32;;;;;;;3.60;100.00;100736.53;5059063;28;20053;-82
2023/04/05 04:38:07;;;;;;;81.55;73.47;;;;;;;3.08;100.00;100743.69;5062552;28;20045;-82
2023/04/05 04:40:37;;;;;;;71.15;63.70;;;;;;;3.07;100.00;100744.69;5060957;28;20052;-82
2023/04/05 04:43:04;;;;;;;76.82;68.97;;;;;;;3.15;100.00;100740.28;5058058;28;20068;-82
2023/04/05 04:45:33;;;;;;;72.82;65.35;;;;;;;3.13;100.00;100739.63;5062097;28;20107;-82
2023/04/05 04:48:03;;;;;;;70.85;63.53;;;;;;;3.02;100.00;100737.25;5060706;28;20056;-82
2023/04/05 04:50:31;;;;;;;71.72;64.35;;;;;;;2.81;100.00;100739.44;5057734;28;20041;-83
2023/04/05 04:52:59;;;;;;;75.63;68.20;;;;;;;3.20;100.00;100739.81;5058954;28;20132;-84
2023/04/05 04:55:27;;;;;;;71.20;63.92;;;;;;;3.14;100.00;100736.00;5058178;28;20045;-84
2023/04/05 04:57:55;;;;;;;68.97;62.20;;;;;;;3.05;100.00;100736.13;5008804;28;20061;-82
2023/04/05 05:00:23;;;;;;;70.38;63.42;;;;;;;3.51;100.00;100744.53;5062351;28;20094;-82
2023/04/05 05:02:51;;;;;;;74.20;67.03;;;;;;;3.48;100.00;100736.97;5059202;28;20045;-82
2023/04/05 05:05:21;;;;;;;66.18;60.20;;;;;;;3.81;100.00;100746.59;5057766;28;20052;-84
2023/04/05 05:07:48;;;;;;;59.03;53.33;;;;;;;3.26;100.00;100736.56;5057853;28;20072;-83
2023/04/05 05:10:15;;;;;;;59.05;53.33;;;;;;;3.35;100.00;100734.78;5055208;28;20056;-84
2023/04/05 05:12:44;;;;;;;58.97;53.47;;;;;;;3.12;100.00;100742.41;5056447;28;20124;-83
2023/04/05 05:15:12;;;;;;;56.97;51.70;;;;;;;3.18;100.00;100745.22;5052645;28;20044;-83
2023/04/05 05:17:39;;;;;;;57.83;52.35;;;;;;;3.14;100.00;100745.69;5052534;28;20045;-82
2023/04/05 05:20:09;;;;;;;59.05;53.40;;;;;;;3.35;100.00;100740.03;5059647;28;20457;-82
2023/04/05 05:22:36;;;;;;;60.40;54.75;;;;;;;3.30;100.00;100742.31;5058654;28;20045;-82
2023/04/05 05:25:03;;;;;;;58.13;52.72;;;;;;;2.87;100.00;100738.81;5060972;28;20220;-82
2023/04/05 05:27:29;;;;;;;59.63;53.92;;;;;;;3.31;100.00;100744.78;5060111;28;20088;-82
2023/04/05 05:29:57;;;;;;;59.17;53.67;;;;;;;3.42;100.00;100741.06;5058749;28;20048;-81
2023/04/05 05:32:24;;;;;;;53.85;48.88;;;;;;;3.24;100.00;100742.94;5061333;28;20053;-81
2023/04/05 05:34:51;;;;;;;60.70;55.13;;;;;;;4.52;100.00;100736.47;5059919;28;20049;-82
2023/04/05 05:37:18;;;;;;;56.97;51.75;;;;;;;3.30;100.00;100740.53;5059733;28;20049;-82
2023/04/05 05:39:45;;;;;;;59.38;53.92;;;;;;;3.31;100.00;100739.53;5058873;28;20084;-82
2023/04/05 05:42:11;;;;;;;58.60;53.20;;;;;;;3.24;100.00;100745.56;5061345;28;20056;-82
2023/04/05 05:44:38;;;;;;;58.13;52.88;;;;;;;3.14;100.00;100738.63;5055300;28;20057;-81
2023/04/05 05:47:06;;;;;;;62.95;57.35;;;;;;;3.38;100.00;100745.78;5061887;28;20056;-82
2023/04/05 05:49:33;;;;;;;60.47;55.17;;;;;;;3.20;100.00;100742.44;5058673;28;20090;-82
2023/04/05 05:52:00;;;;;;;61.72;56.08;;;;;;;3.26;100.00;100746.25;5056906;28;20107;-82
2023/04/05 05:54:27;;;;;;;64.82;59.13;;;;;;;3.38;100.00;100756.28;5060447;28;20140;-81
2023/04/05 05:56:53;;;;;;;63.90;58.10;;;;;;;3.09;100.00;100748.78;5054537;28;20083;-82
2023/04/05 05:59:20;;;;;;;64.80;59.05;;;;;;;3.18;100.00;100752.28;5057716;28;20498;-82
2023/04/05 06:01:47;;;;;;;79.90;73.07;;;;;;;3.31;100.00;100750.03;5060223;28;20087;-82
2023/04/05 06:04:15;;;;;;;75.88;69.38;;;;;;;3.15;100.00;100752.59;5053570;28;20049;-81
2023/04/05 06:06:42;;;;;;;72.18;65.68;;;;;;;3.45;100.00;100756.50;5014521;28;20054;-82
2023/04/05 06:09:09;;;;;;;70.75;64.45;;;;;;;3.57;100.00;100754.38;5037884;28;20057;-81
2023/04/05 06:11:36;;;;;;;76.82;70.25;;;;;;;3.35;100.00;100761.88;5041347;28;20503;-82
2023/04/05 06:14:03;;;;;;;75.50;68.95;;;;;;;3.77;100.00;100773.34;5035563;28;20077;-82
2023/04/05 06:16:30;;;;;;;77.28;70.53;;;;;;;3.35;100.00;100768.91;5039838;28;20053;-82
2023/04/05 06:18:57;;;;;;;69.80;63.38;;;;;;;3.47;100.00;100759.78;5040067;28;20490;-82
2023/04/05 06:21:25;;;;;;;73.40;66.70;;;;;;;3.91;100.00;100767.47;5038859;28;20453;-82
2023/04/05 06:23:52;;;;;;;65.20;59.53;;;;;;;3.92;100.00;100773.56;5032932;28;20042;-82
2023/04/05 06:26:21;;;;;;;58.80;53.40;;;;;;;3.72;100.00;100776.44;5044098;28;20131;-82
2023/04/05 06:28:48;;;;;;;60.47;54.92;;;;;;;3.62;100.00;100776.56;5037850;28;20540;-82
2023/04/05 06:31:16;;;;;;;60.47;54.90;;;;;;;3.42;100.00;100775.22;5038714;28;20103;-84
2023/04/05 06:33:43;;;;;;;63.05;57.55;;;;;;;3.65;100.00;100776.25;5041452;28;20049;-84
2023/04/05 06:36:10;;;;;;;65.90;59.92;;;;;;;3.85;100.00;100789.13;5035823;28;20053;-84
2023/04/05 06:38:38;;;;;;;66.47;61.03;;;;;;;4.07;100.00;100777.19;5037175;28;20115;-84
2023/04/05 06:41:05;;;;;;;68.90;63.17;;;;;;;3.79;100.00;100781.91;5036497;28;20262;-84
2023/04/05 06:43:32;;;;;;;77.03;70.65;;;;;;;3.62;100.00;100765.25;5037468;28;20046;-84
2023/04/05 06:45:59;;;;;;;74.07;67.78;;;;;;;3.76;100.00;100783.03;5029531;28;20435;-83
2023/04/05 06:48:27;;;;;;;81.75;75.15;;;;;;;4.55;100.00;100762.44;5040888;28;20426;-84
2023/04/05 06:50:57;;;;;;;77.00;70.85;;;;;;;3.85;100.00;100776.00;5035673;28;20060;-84
2023/04/05 06:53:26;;;;;;;76.78;70.47;;;;;;;4.74;100.00;100774.41;5039149;28;20132;-84
2023/04/05 06:55:54;;;;;;;73.43;67.13;;;;;;;4.24;100.00;100776.25;5041997;28;20081;-84
2023/04/05 06:58:22;;;;;;;83.28;76.57;;;;;;;4.19;100.00;100781.16;5042127;28;20041;-83
2023/04/05 07:00:49;;;;;;;81.03;74.43;;;;;;;4.41;100.00;100776.22;5040834;28;20045;-84
2023/04/05 07:03:16;;;;;;;83.57;76.80;;;;;;;4.21;100.00;100768.69;5041859;28;20136;-84
2023/04/05 07:05:50;;;;;;;88.90;82.00;;;;;;;4.57;100.00;100765.72;5038369;28;20049;-84
2023/04/05 07:08:17;;;;;;;72.68;66.78;;;;;;;4.54;100.00;100769.50;5037889;28;20132;-84
2023/04/05 07:10:44;;;;;;;64.10;58.70;;;;;;;4.33;100.00;100780.53;5035139;28;20045;-84
2023/04/05 07:13:12;;;;;;;75.38;69.43;;;;;;;5.15;100.00;100769.91;5041028;28;20052;-84
2023/04/05 07:15:39;;;;;;;66.13;61.22;;;;;;;5.81;100.00;100766.97;5043151;28;20049;-84
2023/04/05 07:18:06;;;;;;;55.05;50.45;;;;;;;4.76;100.00;100775.06;5042122;28;20053;-84
2023/04/05 07:20:33;;;;;;;59.53;54.70;;;;;;;4.80;100.00;100771.94;5042477;28;20053;-84
2023/04/05 07:22:59;;;;;;;63.08;58.28;;;;;;;4.80;100.00;100773.75;5044438;28;20399;-82
2023/04/05 07:25:26;;;;;;;58.00;53.50;;;;;;;5.18;100.00;100789.81;5045966;28;20053;-82
2023/04/05 07:27:53;;;;;;;51.88;47.60;;;;;;;5.11;100.00;100781.75;5042408;28;20123;-82
2023/04/05 07:30:21;;;;;;;52.40;48.30;;;;;;;4.75;100.00;100783.94;5036613;28;20049;-82
2023/04/05 07:32:48;;;;;;;58.80;54.40;;;;;;;4.68;100.00;100782.97;5040401;28;20491;-81
2023/04/05 07:35:15;;;;;;;58.65;54.25;;;;;;;4.76;100.00;100785.59;5042138;28;20050;-82
2023/04/05 07:37:41;;;;;;;56.83;52.50;;;;;;;5.23;100.00;100784.84;5039290;28;20073;-82
2023/04/05 07:40:09;;;;;;;58.58;54.13;;;;;;;5.15;100.00;100795.41;5041677;28;20041;-82
2023/04/05 07:42:37;;;;;;;62.60;57.75;;;;;;;5.03;100.00;100794.94;5043531;28;20133;-82
2023/04/05 07:45:05;;;;;;;63.63;58.72;;;;;;;5.00;100.00;100792.66;5043132;28;20426;-82
2023/04/05 07:47:34;;;;;;;63.88;58.95;;;;;;;4.95;100.00;100793.13;5045407;28;20076;-82
2023/04/05 07:50:01;;;;;;;57.83;53.42;;;;;;;5.37;100.00;100792.03;5043034;28;20049;-82
2023/04/05 07:52:28;;;;;;;56.80;52.67;;;;;;;6.48;100.00;100788.34;5046073;28;20046;-82
2023/04/05 07:54:55;;;;;;;48.60;44.70;;;;;;;5.60;100.00;100788.66;5047708;28;20054;-82
2023/04/05 07:57:22;;;;;;;55.70;51.50;;;;;;;6.09;100.00;100797.16;5042188;28;20076;-82
2023/04/05 07:59:49;;;;;;;56.63;52.22;;;;;;;6.11;100.00;100795.19;5041967;28;20057;-82
2023/04/05 08:02:16;;;;;;;57.25;52.88;;;;;;;5.96;100.00;100791.63;5044891;28;20045;-83
2023/04/05 08:04:44;;;;;;;55.78;51.58;;;;;;;6.79;100.00;100784.75;5042631;28;20049;-82
2023/04/05 08:07:11;;;;;;;53.17;49.05;;;;;;;6.29;100.00;100789.59;5043196;28;20072;-84
2023/04/05 08:09:38;;;;;;;55.08;50.88;;;;;;;6.58;100.00;100790.72;5013189;28;20457;-84
2023/04/05 08:12:05;;;;;;;46.22;42.78;;;;;;;5.58;100.00;100795.94;5031849;28;20521;-83
2023/04/05 08:14:32;;;;;;;51.40;47.45;;;;;;;6.07;100.00;100803.63;5039470;28;20049;-84
2023/04/05 08:16:58;;;;;;;47.55;43.83;;;;;;;5.64;100.00;100803.97;5039506;28;20065;-84
2023/04/05 08:19:25;;;;;;;54.28;50.38;;;;;;;6.07;100.00;100808.88;5035492;28;20131;-84
2023/04/05 08:21:54;;;;;;;54.63;50.08;;;;;;;6.48;100.00;100798.06;5039905;28;20053;-84
2023/04/05 08:24:20;;;;;;;45.05;41.60;;;;;;;5.30;100.00;100803.44;5031492;28;20141;-84
2023/04/05 08:26:47;;;;;;;50.90;47.00;;;;;;;5.84;100.00;100793.00;5039310;28;20140;-84
2023/04/05 08:29:16;;;;;;;47.92;44.45;;;;;;;5.89;100.00;100795.94;5041343;28;20069;-84
2023/04/05 08:31:44;;;;;;;50.38;46.55;;;;;;;5.71;100.00;100801.47;5042913;28;20042;-84
2023/04/05 08:34:10;;;;;;;52.42;48.42;;;;;;;6.46;100.00;100807.97;5037865;28;20560;-84
2023/04/05 08:36:37;;;;;;;45.88;42.38;;;;;;;7.11;100.00;100807.41;5043238;28;20049;-84
2023/04/05 08:39:05;;;;;;;39.03;35.92;;;;;;;6.30;100.00;100806.28;5042575;28;20072;-85
2023/04/05 08:41:36;;;;;;;39.78;36.47;;;;;;;6.01;100.00;100801.66;5045224;28;20099;-84
2023/04/05 08:44:04;;;;;;;39.28;36.17;;;;;;;6.02;100.00;100819.13;5044068;28;20050;-84
2023/04/05 08:46:32;;;;;;;39.30;36.17;;;;;;;5.72;100.00;100817.13;5042706;28;20471;-84
2023/04/05 08:49:00;;;;;;;42.00;38.65;;;;;;;5.79;100.00;100816.44;5042362;28;20053;-84
2023/04/05 08:51:27;;;;;;;42.60;39.20;;;;;;;5.64;100.00;100821.59;5042469;28;20140;-84
2023/04/05 08:53:54;;;;;;;47.75;43.95;;;;;;;5.73;100.00;100821.38;5042746;28;20060;-84
2023/04/05 08:56:26;;;;;;;53.75;49.22;;;;;;;6.49;100.00;100823.44;5043519;28;20107;-84
2023/04/05 08:59:00;;;;;;;43.33;40.05;;;;;;;6.03;100.00;100829.50;5044011;28;20041;-84
2023/04/05 09:01:30;;;;;;;46.08;42.58;;;;;;;6.01;100.00;100820.94;5041744;28;20111;-84
2023/04/05 09:03:57;;;;;;;50.38;46.13;;;;;;;6.23;100.00;100831.69;5043246;28;20041;-84
2023/04/05 09:06:25;;;;;;;50.55;46.75;;;;;;;6.77;100.00;100832.44;5044800;28;20068;-84
2023/04/05 09:08:53;;;;;;;48.65;44.95;;;;;;;6.47;100.00;100825.44;5045602;28;20053;-84
2023/04/05 09:11:21;;;;;;;45.67;42.38;;;;;;;8.32;100.00;100842.25;5045286;28;20115;-84
2023/04/05 09:13:48;;;;;;;37.97;34.95;;;;;;;6.35;100.00;100839.03;5047050;28;20053;-84
2023/04/05 09:16:16;;;;;;;41.17;38.20;;;;;;;7.28;100.00;100831.81;5044994;28;20423;-84
2023/04/05 09:18:43;;;;;;;42.20;39.17;;;;;;;7.75;100.00;100836.72;5046303;28;20095;-84
2023/04/05 09:21:10;;;;;;;43.50;40.50;;;;;;;7.46;100.00;100840.19;5046377;28;20469;-84
2023/04/05 09:23:37;;;;;;;39.15;36.35;;;;;;;6.92;100.00;100827.22;5046518;28;20053;-84
2023/04/05 09:26:18;;;;;;;40.92;37.90;;;;;;;6.42;100.00;100836.53;5044977;28;20489;-84
2023/04/05 09:28:46;;;;;;;41.20;37.97;;;;;;;6.54;100.00;100829.03;5044445;28;20050;-84
2023/04/05 09:31:30;;;;;;;46.72;43.08;;;;;;;7.41;100.00;100831.19;5043670;28;20084;-84
2023/04/05 09:33:59;;;;;;;42.72;39.40;;;;;;;7.15;100.00;100832.44;5043974;28;20077;-85
2023/04/05 09:36:27;;;;;;;45.30;41.70;;;;;;;6.11;100.00;100826.84;5044549;28;20085;-84
2023/04/05 09:38:53;;;;;;;46.67;42.97;;;;;;;6.68;100.00;100837.97;5042693;28;20426;-84
2023/04/05 09:41:20;;;;;;;47.67;44.28;;;;;;;6.49;100.00;100836.66;5044588;28;20076;-84
2023/04/05 09:43:48;;;;;;;43.90;40.83;;;;;;;7.32;100.00;100833.94;5045222;28;20037;-84
2023/04/05 09:46:32;;;;;;;45.50;42.22;;;;;;;6.45;100.00;100836.19;5037129;28;20103;-84
2023/04/05 09:49:00;;;;;;;49.00;45.13;;;;;;;6.32;100.00;100836.75;5035501;28;20072;-84
2023/04/05 09:51:33;;;;;;;56.80;52.40;;;;;;;7.12;100.00;100827.53;5035532;28;20080;-84
2023/04/05 09:54:01;;;;;;;43.50;40.15;;;;;;;6.34;100.00;100821.56;5045598;28;20049;-84
2023/04/05 09:56:30;;;;;;;46.10;42.40;;;;;;;6.11;100.00;100828.63;5043760;28;20076;-84
2023/04/05 09:59:03;;;;;;;47.78;43.97;;;;;;;6.20;100.00;100822.31;5045279;28;20050;-84
2023/04/05 10:01:31;;;;;;;59.55;54.85;;;;;;;7.05;100.00;100821.31;5047047;28;20045;-84
2023/04/05 10:03:59;;;;;;;48.17;44.58;;;;;;;6.27;100.00;100809.25;5047369;28;20084;-84
2023/04/05 10:06:36;;;;;;;54.22;50.13;;;;;;;6.80;100.00;100810.97;5045411;28;20084;-84
2023/04/05 10:09:04;;;;;;;43.95;40.65;;;;;;;6.85;100.00;100803.34;5047649;28;20046;-84
2023/04/05 10:11:32;;;;;;;47.67;44.38;;;;;;;6.74;100.00;100805.59;5046256;28;20092;-84
2023/04/05 10:14:03;;;;;;;46.80;43.10;;;;;;;6.60;100.00;100807.22;5047362;28;20050;-84
2023/04/05 10:16:33;;;;;;;50.97;47.28;;;;;;;7.41;100.00;100810.84;5047771;28;20045;-84
2023/04/05 10:19:01;;;;;;;52.38;48.58;;;;;;;7.85;100.00;100804.69;5049208;28;20046;-84
2023/04/05 10:21:30;;;;;;;45.33;41.90;;;;;;;8.03;100.00;100814.88;5050916;28;20202;-84
2023/04/05 10:24:05;;;;;;;41.80;38.70;;;;;;;8.40;100.00;100805.09;5048204;28;20073;-84
2023/04/05 10:26:41;;;;;;;45.75;42.45;;;;;;;9.34;100.00;100792.34;5046300;28;20045;-85
2023/04/05 10:29:15;;;;;;;39.33;36.25;;;;;;;9.10;100.00;100798.13;5051239;28;20049;-85
2023/04/05 10:31:50;;;;;;;41.38;38.38;;;;;;;9.00;100.00;100798.47;5050061;28;20041;-84
2023/04/05 10:34:31;;;;;;;41.05;37.85;;;;;;;8.92;100.00;100795.97;5051611;28;20045;-84
2023/04/05 10:37:00;;;;;;;31.98;29.77;;;;;;;8.14;100.00;100805.63;5050378;28;20160;-85
2023/04/05 10:39:29;;;;;;;34.67;32.08;;;;;;;7.72;100.00;100805.38;5049486;28;20045;-84
2023/04/05 10:42:05;;;;;;;37.95;35.35;;;;;;;7.93;100.00;100804.59;5050043;28;20035;-84
2023/04/05 10:44:36;;;;;;;38.17;35.47;;;;;;;9.00;100.00;100801.13;5049841;28;20049;-84
2023/04/05 10:47:05;;;;;;;39.38;36.65;;;;;;;8.92;100.00;100802.06;5051946;28;20050;-84
2023/04/05 10:49:40;;;;;;;32.53;30.13;;;;;;;8.65;100.00;100800.22;5050645;28;20046;-84
2023/04/05 10:52:07;;;;;;;30.02;27.83;;;;;;;8.23;100.00;100805.34;5050816;28;20111;-84
2023/04/05 10:54:35;;;;;;;31.50;29.40;;;;;;;8.88;100.00;100803.47;5049443;28;20083;-84
2023/04/05 10:57:05;;;;;;;30.08;28.05;;;;;;;9.12;100.00;100799.56;5050255;28;20061;-84
2023/04/05 10:59:34;;;;;;;28.92;27.08;;;;;;;7.75;100.00;100809.47;5049413;28;20125;-84
2023/04/05 11:02:03;;;;;;;29.75;27.45;;;;;;;9.12;100.00;100804.06;5049998;28;20045;-84
2023/04/05 11:04:33;;;;;;;34.38;31.98;;;;;;;9.48;100.00;100789.78;5049748;28;20076;-84
2023/04/05 11:07:15;;;;;;;30.77;28.88;;;;;;;9.38;100.00;100808.72;5046638;28;20053;-85
2023/04/05 11:09:51;;;;;;;28.90;26.98;;;;;;;8.62;100.00;100820.00;5047108;28;20037;-84
2023/04/05 11:12:18;;;;;;;32.67;30.50;;;;;;;8.74;100.00;100816.81;5049770;28;20474;-84
2023/04/05 11:14:46;;;;;;;35.03;32.72;;;;;;;9.06;100.00;100808.28;5044606;28;20053;-84